Time;durP1;ratioP1;P1;durP2;ratioP2;P2;SDS_P1;SDS_P2;PMS_P1;PMS_P2;Temp;Humidity;BMP_temperature;BMP_pressure;BME280_temperature;BME280_humidity;BME280_pressure;Samples;Min_cycle;Max_cycle;Signal;HPM_P1;HPM_P2
2023/05/21 00:00:19;;;;;;;7.47;5.00;;;;;;;;;;5050375;28;20055;-88
2023/05/21 00:02:45;;;;;;;11.20;7.95;;;;;;;;;;5046784;28;20398;-88
2023/05/21 00:05:12;;;;;;;8.73;5.72;;;;;;;;;;5053978;28;20055;-87
2023/05/21 00:07:37;;;;;;;10.30;5.70;;;;;;;;;;5059883;28;20041;-88
2023/05/21 00:10:03;;;;;;;8.65;5.95;;;;;;;;;;5054363;28;20108;-88
2023/05/21 00:12:31;;;;;;;7.45;5.40;;;;;;;;;;5051447;28;20048;-87
2023/05/21 00:14:57;;;;;;;8.23;5.90;;;;;;;;;;5047943;28;20029;-88
2023/05/21 00:17:22;;;;;;;9.45;6.03;;;;;;;;;;5041065;28;20406;-87
2023/05/21 00:19:49;;;;;;;7.78;5.20;;;;;;;;;;5043583;28;20076;-87
2023/05/21 00:22:15;;;;;;;8.32;5.40;;;;;;;;;;5050022;28;20029;-86
2023/05/21 00:24:41;;;;;;;9.65;5.40;;;;;;;;;;5049309;28;20037;-87
2023/05/21 00:27:06;;;;;;;7.57;5.13;;;;;;;;;;5048921;28;20372;-87
2023/05/21 00:29:32;;;;;;;8.50;5.18;;;;;;;;;;5044470;28;20033;-87
2023/05/21 00:31:57;;;;;;;7.30;4.88;;;;;;;;;;5025885;28;20052;-87
2023/05/21 00:34:23;;;;;;;9.75;5.82;;;;;;;;;;5043565;28;20669;-87
2023/05/21 00:36:48;;;;;;;10.00;5.55;;;;;;;;;;5047950;28;20037;-87
2023/05/21 00:39:14;;;;;;;5.95;4.63;;;;;;;;;;5049260;28;20038;-87
2023/05/21 00:41:41;;;;;;;8.75;4.68;;;;;;;;;;5044461;28;20037;-87
2023/05/21 00:44:07;;;;;;;8.75;4.88;;;;;;;;;;5042286;28;20036;-87
2023/05/21 00:46:33;;;;;;;8.95;5.70;;;;;;;;;;5043844;28;20028;-87
2023/05/21 00:48:59;;;;;;;13.27;6.10;;;;;;;;;;5043466;28;20033;-87
2023/05/21 00:51:29;;;;;;;7.22;5.28;;;;;;;;;;5047829;28;20040;-87
2023/05/21 00:53:55;;;;;;;9.55;5.50;;;;;;;;;;5043361;28;20046;-87
2023/05/21 00:56:22;;;;;;;8.88;4.70;;;;;;;;;;5043446;28;20103;-87
2023/05/21 00:58:50;;;;;;;7.85;5.18;;;;;;;;;;5032738;28;20093;-88
2023/05/21 01:01:17;;;;;;;12.07;5.93;;;;;;;;;;5040579;28;20414;-87
2023/05/21 01:03:43;;;;;;;12.88;6.22;;;;;;;;;;5043679;28;20085;-87
2023/05/21 01:06:10;;;;;;;8.23;5.53;;;;;;;;;;5043142;28;20060;-87
2023/05/21 01:08:37;;;;;;;7.68;5.35;;;;;;;;;;5043674;28;20089;-88
2023/05/21 01:11:03;;;;;;;8.65;5.60;;;;;;;;;;5025976;28;20056;-87
2023/05/21 01:13:31;;;;;;;8.63;5.10;;;;;;;;;;5039227;28;20034;-87
2023/05/21 01:15:58;;;;;;;8.40;4.97;;;;;;;;;;5041105;28;20050;-87
2023/05/21 01:18:24;;;;;;;8.70;4.90;;;;;;;;;;5029903;28;20048;-88
2023/05/21 01:20:51;;;;;;;8.38;5.25;;;;;;;;;;5037432;28;20060;-87
2023/05/21 01:23:17;;;;;;;8.00;5.45;;;;;;;;;;5029112;28;20136;-87
2023/05/21 01:25:43;;;;;;;11.02;5.35;;;;;;;;;;5047001;28;20072;-88
2023/05/21 01:28:10;;;;;;;7.63;4.95;;;;;;;;;;5046055;28;20029;-87
2023/05/21 01:30:36;;;;;;;7.13;5.30;;;;;;;;;;5063336;28;20083;-87
2023/05/21 01:33:06;;;;;;;9.82;5.07;;;;;;;;;;5061791;28;20039;-87
2023/05/21 01:35:40;;;;;;;7.43;4.85;;;;;;;;;;5044246;28;20036;-87
2023/05/21 01:38:21;;;;;;;10.45;6.47;;;;;;;;;;5053695;28;20049;-87
2023/05/21 01:41:02;;;;;;;9.65;6.60;;;;;;;;;;5012140;28;20037;-87
2023/05/21 01:43:31;;;;;;;11.50;5.45;;;;;;;;;;5028250;28;20030;-87
2023/05/21 01:45:58;;;;;;;6.78;4.43;;;;;;;;;;5037510;28;20063;-87
2023/05/21 01:48:28;;;;;;;6.30;4.70;;;;;;;;;;5062569;28;20052;-87
2023/05/21 01:50:56;;;;;;;11.52;5.90;;;;;;;;;;5023157;28;20044;-87
2023/05/21 01:53:22;;;;;;;7.63;4.80;;;;;;;;;;5044358;28;20051;-87
2023/05/21 01:55:48;;;;;;;11.93;6.50;;;;;;;;;;5029006;28;20040;-87
2023/05/21 01:58:14;;;;;;;10.40;6.97;;;;;;;;;;5032423;28;20037;-88
2023/05/21 02:00:40;;;;;;;11.70;5.93;;;;;;;;;;5030972;28;20029;-87
2023/05/21 02:03:07;;;;;;;10.50;5.55;;;;;;;;;;5047030;28;20341;-88
2023/05/21 02:05:33;;;;;;;7.45;5.43;;;;;;;;;;5029449;28;20048;-87
2023/05/21 02:08:00;;;;;;;8.10;5.45;;;;;;;;;;5046221;28;20033;-87
2023/05/21 02:10:25;;;;;;;10.35;5.30;;;;;;;;;;5044850;28;20029;-87
2023/05/21 02:12:51;;;;;;;7.20;5.30;;;;;;;;;;5045364;28;20040;-87
2023/05/21 02:15:17;;;;;;;7.00;4.90;;;;;;;;;;5045872;28;20055;-87
2023/05/21 02:17:46;;;;;;;9.55;6.15;;;;;;;;;;5044842;28;20043;-86
2023/05/21 02:20:13;;;;;;;9.38;5.22;;;;;;;;;;5045615;28;20033;-87
2023/05/21 02:22:43;;;;;;;6.97;5.03;;;;;;;;;;5027333;28;20678;-87
2023/05/21 02:25:10;;;;;;;9.13;5.40;;;;;;;;;;5045576;28;20037;-87
2023/05/21 02:27:36;;;;;;;9.93;5.35;;;;;;;;;;5026903;28;20048;-87
2023/05/21 02:30:07;;;;;;;6.93;4.65;;;;;;;;;;5027500;28;20037;-87
2023/05/21 02:32:33;;;;;;;8.25;5.70;;;;;;;;;;5044869;28;20025;-88
2023/05/21 02:35:00;;;;;;;6.88;4.95;;;;;;;;;;5055274;28;20095;-86
2023/05/21 02:37:32;;;;;;;9.27;4.97;;;;;;;;;;5038154;28;20033;-87
2023/05/21 02:40:00;;;;;;;24.25;11.32;;;;;;;;;;5044518;28;20033;-87
2023/05/21 02:42:26;;;;;;;7.32;5.10;;;;;;;;;;5041106;28;20032;-87
2023/05/21 02:44:52;;;;;;;10.05;5.30;;;;;;;;;;5019031;28;20037;-87
2023/05/21 02:47:19;;;;;;;8.73;5.45;;;;;;;;;;5021313;28;20029;-87
2023/05/21 02:49:45;;;;;;;8.52;5.20;;;;;;;;;;5018190;28;20391;-86
2023/05/21 02:52:10;;;;;;;7.68;5.22;;;;;;;;;;5036626;28;20392;-86
2023/05/21 02:54:36;;;;;;;9.38;5.57;;;;;;;;;;5019655;28;20101;-86
2023/05/21 02:57:05;;;;;;;8.65;5.75;;;;;;;;;;5019772;28;20041;-85
2023/05/21 02:59:30;;;;;;;12.05;6.15;;;;;;;;;;5040397;28;20040;-86
2023/05/21 03:01:56;;;;;;;9.82;5.65;;;;;;;;;;5021541;28;20112;-87
2023/05/21 03:04:21;;;;;;;9.98;5.78;;;;;;;;;;5026000;28;20620;-87
2023/05/21 03:06:50;;;;;;;8.25;5.35;;;;;;;;;;5037983;28;20041;-86
2023/05/21 03:09:16;;;;;;;9.35;5.00;;;;;;;;;;5044023;28;20045;-87
2023/05/21 03:11:42;;;;;;;7.28;4.60;;;;;;;;;;5043376;28;20043;-87
2023/05/21 03:14:08;;;;;;;6.80;4.80;;;;;;;;;;5043639;28;20038;-87
2023/05/21 03:16:34;;;;;;;8.02;4.78;;;;;;;;;;5025954;28;20029;-86
2023/05/21 03:19:00;;;;;;;7.97;5.30;;;;;;;;;;5059818;28;20029;-87
2023/05/21 03:21:28;;;;;;;10.80;5.90;;;;;;;;;;5059947;28;20037;-87
2023/05/21 03:23:57;;;;;;;18.75;7.00;;;;;;;;;;5036403;28;20116;-87
2023/05/21 03:26:26;;;;;;;11.65;5.93;;;;;;;;;;5040819;28;20068;-87
2023/05/21 03:28:52;;;;;;;7.10;5.05;;;;;;;;;;5026198;28;20092;-87
2023/05/21 03:31:19;;;;;;;9.20;5.30;;;;;;;;;;5025745;28;20048;-86
2023/05/21 03:34:07;;;;;;;7.57;4.93;;;;;;;;;;5037920;28;20034;-87
2023/05/21 03:36:33;;;;;;;5.88;4.68;;;;;;;;;;5042445;28;20040;-87
2023/05/21 03:38:58;;;;;;;6.85;4.90;;;;;;;;;;5057134;28;20431;-87
2023/05/21 03:41:25;;;;;;;8.48;5.07;;;;;;;;;;5053193;28;20029;-86
2023/05/21 03:43:55;;;;;;;12.38;4.97;;;;;;;;;;5024581;28;20025;-86
2023/05/21 03:46:25;;;;;;;9.70;4.90;;;;;;;;;;5020984;28;20029;-87
2023/05/21 03:49:17;;;;;;;6.75;4.65;;;;;;;;;;5032223;28;20033;-86
2023/05/21 03:51:42;;;;;;;6.90;4.80;;;;;;;;;;5021803;28;20035;-85
2023/05/21 03:54:11;;;;;;;7.57;4.57;;;;;;;;;;5016663;28;20123;-86
2023/05/21 03:56:38;;;;;;;7.68;4.35;;;;;;;;;;5016184;28;20029;-87
2023/05/21 03:59:04;;;;;;;6.10;4.82;;;;;;;;;;5034659;28;20026;-86
2023/05/21 04:01:31;;;;;;;6.35;4.32;;;;;;;;;;5023591;28;20113;-86
2023/05/21 04:03:58;;;;;;;7.45;5.07;;;;;;;;;;5033855;28;20032;-87
2023/05/21 04:06:25;;;;;;;5.90;4.57;;;;;;;;;;5015125;28;20072;-86
2023/05/21 04:08:51;;;;;;;6.85;4.88;;;;;;;;;;5037055;28;20040;-86
2023/05/21 04:11:16;;;;;;;8.57;5.18;;;;;;;;;;5035957;28;20029;-87
2023/05/21 04:13:42;;;;;;;6.43;4.80;;;;;;;;;;5023917;28;20056;-88
2023/05/21 04:16:08;;;;;;;8.82;5.10;;;;;;;;;;5052669;28;20029;-87
2023/05/21 04:18:34;;;;;;;8.75;5.03;;;;;;;;;;5030921;28;20040;-86
2023/05/21 04:21:01;;;;;;;8.85;5.40;;;;;;;;;;5027339;28;20133;-86
2023/05/21 04:23:27;;;;;;;8.30;5.10;;;;;;;;;;5024433;28;20076;-86
2023/05/21 04:25:54;;;;;;;7.13;4.90;;;;;;;;;;5019293;28;20056;-86
2023/05/21 04:28:22;;;;;;;8.27;5.20;;;;;;;;;;5018200;28;20022;-86
2023/05/21 04:30:51;;;;;;;7.80;4.65;;;;;;;;;;5017866;28;20032;-87
2023/05/21 04:33:18;;;;;;;7.47;5.22;;;;;;;;;;5016765;28;20065;-86
2023/05/21 04:35:50;;;;;;;7.30;5.00;;;;;;;;;;5041169;28;20044;-87
2023/05/21 04:38:19;;;;;;;6.80;4.80;;;;;;;;;;5000042;28;20069;-86
2023/05/21 04:40:52;;;;;;;9.05;5.32;;;;;;;;;;5016765;28;20079;-86
2023/05/21 04:43:24;;;;;;;7.03;5.07;;;;;;;;;;5049080;28;20037;-87
2023/05/21 04:45:53;;;;;;;9.02;5.07;;;;;;;;;;5027866;28;20033;-86
2023/05/21 04:48:19;;;;;;;6.28;4.68;;;;;;;;;;5024582;28;20519;-86
2023/05/21 04:50:46;;;;;;;6.40;4.47;;;;;;;;;;5039467;28;20054;-86
2023/05/21 04:53:14;;;;;;;6.22;4.60;;;;;;;;;;5029604;28;20111;-85
2023/05/21 04:55:40;;;;;;;7.50;4.90;;;;;;;;;;5039252;28;20480;-86
2023/05/21 04:58:06;;;;;;;7.15;5.50;;;;;;;;;;5020425;28;20052;-86
2023/05/21 05:00:36;;;;;;;8.20;4.55;;;;;;;;;;5019781;28;20021;-87
2023/05/21 05:03:02;;;;;;;10.55;5.50;;;;;;;;;;5020310;28;20525;-88
2023/05/21 05:05:28;;;;;;;9.45;5.13;;;;;;;;;;5034394;28;20020;-86
2023/05/21 05:07:53;;;;;;;9.00;5.18;;;;;;;;;;5054197;28;20033;-86
2023/05/21 05:10:19;;;;;;;8.88;5.70;;;;;;;;;;5050869;28;20029;-86
2023/05/21 05:12:45;;;;;;;7.18;5.15;;;;;;;;;;5051558;28;20335;-86
2023/05/21 05:15:10;;;;;;;10.02;5.70;;;;;;;;;;5031229;28;20049;-87
2023/05/21 05:17:36;;;;;;;7.70;4.90;;;;;;;;;;5028606;28;20037;-87
2023/05/21 05:20:02;;;;;;;8.55;5.50;;;;;;;;;;5044652;28;20254;-88
2023/05/21 05:22:28;;;;;;;8.40;5.40;;;;;;;;;;5026851;28;20088;-86
2023/05/21 05:24:53;;;;;;;10.48;5.63;;;;;;;;;;5039820;28;20040;-86
2023/05/21 05:27:19;;;;;;;7.03;5.25;;;;;;;;;;5037288;28;20084;-86
2023/05/21 05:29:44;;;;;;;8.88;5.13;;;;;;;;;;5051160;28;20030;-86
2023/05/21 05:32:10;;;;;;;8.15;5.35;;;;;;;;;;5031235;28;20068;-87
2023/05/21 05:34:36;;;;;;;7.38;5.45;;;;;;;;;;5028960;28;20025;-87
2023/05/21 05:37:03;;;;;;;7.70;5.28;;;;;;;;;;5062767;28;20064;-87
2023/05/21 05:39:28;;;;;;;9.38;5.15;;;;;;;;;;5044040;28;20040;-88
2023/05/21 05:41:54;;;;;;;8.88;5.30;;;;;;;;;;5039396;28;20097;-87
2023/05/21 05:44:20;;;;;;;8.95;5.60;;;;;;;;;;5017099;28;20091;-87
2023/05/21 05:46:45;;;;;;;8.63;5.68;;;;;;;;;;5044344;28;20033;-87
2023/05/21 05:49:12;;;;;;;10.20;5.38;;;;;;;;;;5044777;28;20049;-86
2023/05/21 05:51:39;;;;;;;11.30;5.43;;;;;;;;;;5039609;28;20034;-87
2023/05/21 05:54:05;;;;;;;15.98;7.38;;;;;;;;;;5044905;28;20041;-88
2023/05/21 05:56:31;;;;;;;7.70;5.32;;;;;;;;;;5026298;28;20033;-86
2023/05/21 05:58:58;;;;;;;8.93;5.47;;;;;;;;;;5044694;28;20108;-86
2023/05/21 06:01:24;;;;;;;7.93;5.20;;;;;;;;;;5028527;28;20068;-86
2023/05/21 06:03:51;;;;;;;7.57;5.30;;;;;;;;;;5020394;28;20034;-86
2023/05/21 06:06:17;;;;;;;7.07;5.30;;;;;;;;;;5042480;28;20033;-87
2023/05/21 06:08:43;;;;;;;8.27;5.35;;;;;;;;;;5042979;28;20507;-87
2023/05/21 06:11:11;;;;;;;6.85;5.05;;;;;;;;;;5043560;28;20033;-85
2023/05/21 06:13:36;;;;;;;9.30;6.43;;;;;;;;;;5025664;28;20064;-85
2023/05/21 06:16:03;;;;;;;8.93;6.03;;;;;;;;;;5035815;28;20404;-87
2023/05/21 06:18:29;;;;;;;9.18;5.40;;;;;;;;;;5029659;28;20105;-87
2023/05/21 06:20:54;;;;;;;7.18;5.38;;;;;;;;;;5044055;28;20065;-88
2023/05/21 06:23:21;;;;;;;10.88;5.55;;;;;;;;;;5038226;28;20183;-86
2023/05/21 06:25:48;;;;;;;7.90;5.45;;;;;;;;;;5020508;28;20042;-85
2023/05/21 06:28:14;;;;;;;10.38;5.53;;;;;;;;;;5019242;28;20487;-85
2023/05/21 06:30:40;;;;;;;10.45;5.40;;;;;;;;;;5024585;28;20053;-86
2023/05/21 06:33:06;;;;;;;7.30;4.85;;;;;;;;;;5032249;28;20049;-85
2023/05/21 06:35:35;;;;;;;7.85;4.95;;;;;;;;;;5045852;28;20057;-87
2023/05/21 06:38:02;;;;;;;9.63;4.90;;;;;;;;;;5041675;28;20037;-86
2023/05/21 06:40:27;;;;;;;8.55;5.32;;;;;;;;;;5030505;28;20095;-87
2023/05/21 06:42:58;;;;;;;8.48;4.88;;;;;;;;;;5041960;28;20674;-86
2023/05/21 06:45:44;;;;;;;8.32;4.95;;;;;;;;;;5055952;28;20052;-84
2023/05/21 06:48:45;;;;;;;7.70;4.63;;;;;;;;;;5038421;28;20044;-86
2023/05/21 06:51:11;;;;;;;8.15;5.30;;;;;;;;;;5032857;28;20041;-87
2023/05/21 06:53:37;;;;;;;5.88;4.65;;;;;;;;;;5023605;28;20078;-84
2023/05/21 06:56:03;;;;;;;7.35;4.80;;;;;;;;;;5018921;28;20037;-84
2023/05/21 06:58:40;;;;;;;6.93;4.70;;;;;;;;;;5013007;28;20045;-85
2023/05/21 07:01:06;;;;;;;5.60;4.63;;;;;;;;;;5016204;28;20178;-86
2023/05/21 07:03:31;;;;;;;6.45;4.65;;;;;;;;;;5021501;28;20064;-86
2023/05/21 07:05:57;;;;;;;6.13;4.70;;;;;;;;;;5026925;28;20051;-85
2023/05/21 07:08:22;;;;;;;5.85;4.60;;;;;;;;;;5042936;28;20506;-87
2023/05/21 07:10:49;;;;;;;8.98;4.50;;;;;;;;;;5021851;28;20044;-86
2023/05/21 07:13:15;;;;;;;5.70;4.15;;;;;;;;;;5012199;28;20487;-87
2023/05/21 07:15:41;;;;;;;8.55;4.85;;;;;;;;;;5034207;28;20064;-86
2023/05/21 07:18:06;;;;;;;7.22;4.57;;;;;;;;;;5017097;28;20569;-87
2023/05/21 07:20:32;;;;;;;6.10;4.40;;;;;;;;;;5044781;28;20063;-86
2023/05/21 07:23:02;;;;;;;6.03;4.28;;;;;;;;;;5017129;28;20557;-88
2023/05/21 07:25:27;;;;;;;6.07;4.43;;;;;;;;;;5035458;28;20029;-85
2023/05/21 07:27:53;;;;;;;8.10;4.53;;;;;;;;;;5030957;28;20037;-86
2023/05/21 07:30:19;;;;;;;5.05;4.00;;;;;;;;;;5043920;28;20037;-88
2023/05/21 07:32:46;;;;;;;5.78;4.20;;;;;;;;;;5030434;28;20036;-88
2023/05/21 07:35:11;;;;;;;6.72;4.28;;;;;;;;;;5036931;28;20029;-88
2023/05/21 07:37:37;;;;;;;6.80;4.30;;;;;;;;;;5020594;28;20039;-90
2023/05/21 07:40:05;;;;;;;4.93;4.30;;;;;;;;;;5023204;28;20101;-90
2023/05/21 07:42:31;;;;;;;5.80;4.47;;;;;;;;;;5019676;28;20541;-88
2023/05/21 07:44:57;;;;;;;6.50;4.43;;;;;;;;;;5017744;28;20033;-88
2023/05/21 07:47:25;;;;;;;5.30;4.05;;;;;;;;;;5034259;28;20020;-89
2023/05/21 07:49:50;;;;;;;8.38;4.40;;;;;;;;;;5016325;28;20052;-89
2023/05/21 07:52:16;;;;;;;5.95;4.13;;;;;;;;;;5024918;28;20120;-90
2023/05/21 07:54:42;;;;;;;5.68;4.35;;;;;;;;;;5004945;28;20044;-89
2023/05/21 07:57:08;;;;;;;7.38;4.40;;;;;;;;;;5020743;28;20036;-89
2023/05/21 07:59:53;;;;;;;6.45;4.22;;;;;;;;;;5033391;28;20477;-91
2023/05/21 08:02:19;;;;;;;8.13;4.28;;;;;;;;;;5016965;28;20622;-89
2023/05/21 08:04:45;;;;;;;7.45;4.32;;;;;;;;;;5018499;28;20491;-89
2023/05/21 08:07:11;;;;;;;7.18;4.45;;;;;;;;;;5038279;28;20108;-89
2023/05/21 08:09:37;;;;;;;7.40;4.78;;;;;;;;;;5020051;28;20099;-90
2023/05/21 08:12:03;;;;;;;7.47;4.60;;;;;;;;;;5022086;28;20068;-89
2023/05/21 08:14:29;;;;;;;6.93;4.47;;;;;;;;;;5020571;28;20056;-89
2023/05/21 08:16:55;;;;;;;7.13;4.47;;;;;;;;;;5015088;28;20564;-89
2023/05/21 08:19:20;;;;;;;6.55;4.32;;;;;;;;;;5039175;28;20033;-89
2023/05/21 08:21:46;;;;;;;8.45;4.47;;;;;;;;;;5021339;28;20056;-90
2023/05/21 08:24:12;;;;;;;6.00;4.32;;;;;;;;;;5014062;28;20077;-90
2023/05/21 08:26:38;;;;;;;8.95;4.38;;;;;;;;;;5042615;28;20041;-89
2023/05/21 08:29:03;;;;;;;5.57;4.22;;;;;;;;;;5029495;28;20391;-90
2023/05/21 08:31:29;;;;;;;4.93;3.90;;;;;;;;;;5020459;28;20087;-90
2023/05/21 08:33:55;;;;;;;7.55;4.28;;;;;;;;;;5022883;28;20084;-90
2023/05/21 08:36:31;;;;;;;6.75;4.15;;;;;;;;;;5018341;28;20025;-90
2023/05/21 08:39:02;;;;;;;6.05;4.13;;;;;;;;;;5014521;28;20030;-90
2023/05/21 08:41:34;;;;;;;7.63;4.45;;;;;;;;;;5035265;28;20048;-90
2023/05/21 08:44:01;;;;;;;8.52;4.13;;;;;;;;;;5025870;28;20056;-91
2023/05/21 08:46:32;;;;;;;4.40;4.00;;;;;;;;;;5018801;28;20064;-90
2023/05/21 08:48:58;;;;;;;4.80;3.80;;;;;;;;;;5004316;28;20124;-91
2023/05/21 08:51:25;;;;;;;5.80;3.90;;;;;;;;;;5018207;28;20491;-90
2023/05/21 08:53:52;;;;;;;7.13;4.05;;;;;;;;;;5036724;28;20124;-90
2023/05/21 08:56:20;;;;;;;5.97;4.15;;;;;;;;;;5035769;28;20060;-90
2023/05/21 08:58:52;;;;;;;5.75;4.07;;;;;;;;;;5026184;28;20052;-89
2023/05/21 09:01:25;;;;;;;5.35;4.05;;;;;;;;;;5015955;28;20037;-90
2023/05/21 09:03:57;;;;;;;8.85;4.57;;;;;;;;;;5022171;28;20060;-89
2023/05/21 09:06:26;;;;;;;8.73;4.15;;;;;;;;;;5018923;28;20128;-88
2023/05/21 09:09:08;;;;;;;6.75;4.20;;;;;;;;;;5009638;28;20037;-89
2023/05/21 09:11:41;;;;;;;6.38;3.95;;;;;;;;;;5000580;28;20056;-89
2023/05/21 09:14:07;;;;;;;6.00;4.00;;;;;;;;;;5027835;28;20029;-89
2023/05/21 09:16:47;;;;;;;5.65;3.80;;;;;;;;;;5026197;28;20029;-89
2023/05/21 09:19:13;;;;;;;6.13;3.80;;;;;;;;;;5025583;28;20040;-87
2023/05/21 09:21:39;;;;;;;6.95;3.85;;;;;;;;;;5020216;28;20033;-90
2023/05/21 09:24:14;;;;;;;5.00;3.88;;;;;;;;;;5038591;28;20063;-88
2023/05/21 09:26:43;;;;;;;4.65;3.70;;;;;;;;;;5039052;28;20033;-90
2023/05/21 09:29:12;;;;;;;4.53;3.72;;;;;;;;;;5013592;28;20088;-90
2023/05/21 09:31:43;;;;;;;4.78;3.55;;;;;;;;;;5001842;28;20087;-89
2023/05/21 09:34:10;;;;;;;5.65;3.95;;;;;;;;;;5032679;28;20044;-89
2023/05/21 09:36:37;;;;;;;7.25;4.00;;;;;;;;;;5034477;28;20041;-89
2023/05/21 09:39:04;;;;;;;5.28;3.65;;;;;;;;;;5018959;28;20045;-89
2023/05/21 09:41:32;;;;;;;6.15;4.00;;;;;;;;;;5027450;28;20052;-89
2023/05/21 09:44:02;;;;;;;4.53;4.03;;;;;;;;;;5010227;28;20028;-89
2023/05/21 09:46:39;;;;;;;7.88;3.70;;;;;;;;;;5004699;28;20079;-89
2023/05/21 09:49:06;;;;;;;5.43;3.92;;;;;;;;;;5018418;28;20510;-90
2023/05/21 09:51:31;;;;;;;8.15;4.07;;;;;;;;;;5019269;28;20041;-90
2023/05/21 09:53:57;;;;;;;5.72;3.90;;;;;;;;;;5035833;28;20404;-90
2023/05/21 09:56:25;;;;;;;5.38;3.70;;;;;;;;;;5003005;28;20042;-89
2023/05/21 09:58:55;;;;;;;4.85;3.65;;;;;;;;;;5019343;28;20112;-89
2023/05/21 10:01:22;;;;;;;6.03;3.67;;;;;;;;;;5038993;28;20034;-90
2023/05/21 10:03:58;;;;;;;6.10;3.88;;;;;;;;;;5039599;28;20124;-90
2023/05/21 10:06:30;;;;;;;4.50;3.80;;;;;;;;;;5018778;28;20129;-90
2023/05/21 10:08:57;;;;;;;7.30;3.72;;;;;;;;;;5029505;28;20038;-90
2023/05/21 10:11:26;;;;;;;5.20;4.00;;;;;;;;;;5027375;28;20048;-90
2023/05/21 10:13:59;;;;;;;7.03;3.80;;;;;;;;;;5038158;28;20039;-90
2023/05/21 10:16:25;;;;;;;5.07;3.72;;;;;;;;;;5027747;28;20037;-90
2023/05/21 10:18:53;;;;;;;5.85;3.70;;;;;;;;;;5014099;28;20044;-91
2023/05/21 10:21:20;;;;;;;5.55;3.80;;;;;;;;;;5024007;28;20036;-90
2023/05/21 10:23:47;;;;;;;6.15;3.75;;;;;;;;;;5036683;28;20029;-90
2023/05/21 10:26:13;;;;;;;11.85;3.80;;;;;;;;;;5059354;28;20028;-90
2023/05/21 10:28:39;;;;;;;5.13;3.80;;;;;;;;;;5046307;28;20071;-90
2023/05/21 10:31:05;;;;;;;4.50;3.60;;;;;;;;;;5053251;28;20037;-89
2023/05/21 10:33:32;;;;;;;4.80;3.70;;;;;;;;;;5036547;28;20040;-89
2023/05/21 10:35:58;;;;;;;5.30;3.30;;;;;;;;;;5032728;28;20419;-89
2023/05/21 10:38:24;;;;;;;5.13;3.88;;;;;;;;;;5044855;28;20037;-89
2023/05/21 10:40:52;;;;;;;4.55;3.78;;;;;;;;;;5031802;28;20047;-89
2023/05/21 10:43:27;;;;;;;4.30;3.30;;;;;;;;;;5021073;28;20053;-87
2023/05/21 10:46:14;;;;;;;4.70;3.60;;;;;;;;;;5017204;28;20567;-90
2023/05/21 10:48:51;;;;;;;6.93;3.60;;;;;;;;;;5042204;28;20029;-89
2023/05/21 10:51:27;;;;;;;4.75;3.50;;;;;;;;;;5045490;28;20040;-89
2023/05/21 10:54:31;;;;;;;5.68;3.70;;;;;;;;;;5037414;28;20038;-91
2023/05/21 10:57:17;;;;;;;6.90;3.72;;;;;;;;;;4941001;28;20061;-88
2023/05/21 10:59:46;;;;;;;5.65;3.53;;;;;;;;;;5038586;28;20041;-89
2023/05/21 11:02:14;;;;;;;7.20;3.88;;;;;;;;;;5050569;28;20175;-90
2023/05/21 11:04:43;;;;;;;5.10;3.90;;;;;;;;;;5037682;28;20025;-88
2023/05/21 11:07:11;;;;;;;6.18;3.60;;;;;;;;;;5049985;28;20062;-89
2023/05/21 11:09:37;;;;;;;4.50;3.47;;;;;;;;;;5049735;28;20032;-89
2023/05/21 11:12:03;;;;;;;7.68;3.97;;;;;;;;;;5039518;28;20399;-89
2023/05/21 11:14:39;;;;;;;5.18;3.40;;;;;;;;;;5040748;28;20029;-89
2023/05/21 11:17:08;;;;;;;4.35;3.33;;;;;;;;;;5038190;28;20556;-88
2023/05/21 11:19:38;;;;;;;4.05;3.40;;;;;;;;;;5045663;28;20040;-88
2023/05/21 11:22:07;;;;;;;8.23;3.50;;;;;;;;;;5019856;28;20434;-89
2023/05/21 11:24:36;;;;;;;4.97;3.40;;;;;;;;;;5042770;28;20037;-88
2023/05/21 11:27:03;;;;;;;5.60;3.53;;;;;;;;;;5000685;28;20107;-89
2023/05/21 11:29:39;;;;;;;4.88;3.33;;;;;;;;;;5044646;28;20033;-88
2023/05/21 11:32:07;;;;;;;6.22;3.72;;;;;;;;;;5039929;28;20025;-88
2023/05/21 11:34:38;;;;;;;5.30;3.60;;;;;;;;;;5020683;28;20072;-88
2023/05/21 11:37:34;;;;;;;6.40;3.65;;;;;;;;;;5036370;28;20041;-89
2023/05/21 11:40:21;;;;;;;6.28;3.80;;;;;;;;;;5020350;28;20140;-90
2023/05/21 11:42:54;;;;;;;6.35;4.03;;;;;;;;;;5037265;28;20034;-90
2023/05/21 11:45:22;;;;;;;5.20;3.72;;;;;;;;;;5038416;28;20034;-91
2023/05/21 11:47:48;;;;;;;5.72;3.50;;;;;;;;;;5038267;28;20037;-90
2023/05/21 11:50:15;;;;;;;4.38;3.53;;;;;;;;;;5029971;28;20503;-89
2023/05/21 11:52:41;;;;;;;4.32;3.70;;;;;;;;;;5042175;28;20036;-90
2023/05/21 11:55:08;;;;;;;5.88;3.88;;;;;;;;;;5050469;28;20392;-89
2023/05/21 11:57:33;;;;;;;7.32;4.13;;;;;;;;;;5039152;28;20087;-90
2023/05/21 12:00:01;;;;;;;6.13;3.80;;;;;;;;;;5017310;28;20037;-92
2023/05/21 12:02:30;;;;;;;6.53;3.78;;;;;;;;;;5043302;28;20030;-90
2023/05/21 12:04:58;;;;;;;6.32;3.53;;;;;;;;;;5036652;28;20124;-91
2023/05/21 12:07:30;;;;;;;5.65;3.85;;;;;;;;;;5035820;28;20073;-90
2023/05/21 12:09:56;;;;;;;7.95;3.92;;;;;;;;;;5035263;28;20044;-92
2023/05/21 12:12:23;;;;;;;6.38;3.92;;;;;;;;;;5021478;28;20033;-90
2023/05/21 12:14:51;;;;;;;4.63;3.72;;;;;;;;;;5012169;28;20528;-90
2023/05/21 12:17:21;;;;;;;5.20;4.07;;;;;;;;;;5040629;28;20111;-90
2023/05/21 12:19:50;;;;;;;5.38;4.03;;;;;;;;;;5036664;28;20502;-90
2023/05/21 12:22:15;;;;;;;8.88;3.80;;;;;;;;;;5022162;28;20087;-90
2023/05/21 12:24:45;;;;;;;6.65;4.28;;;;;;;;;;4999002;28;20041;-90
2023/05/21 12:27:12;;;;;;;5.97;4.05;;;;;;;;;;5030822;28;20048;-91
2023/05/21 12:29:40;;;;;;;5.32;4.20;;;;;;;;;;5022088;28;20132;-90
2023/05/21 12:32:08;;;;;;;7.55;4.28;;;;;;;;;;5042663;28;20029;-90
2023/05/21 12:34:36;;;;;;;6.85;3.90;;;;;;;;;;5031757;28;20051;-91
2023/05/21 12:37:04;;;;;;;7.47;3.72;;;;;;;;;;5036379;28;20045;-90
2023/05/21 12:39:30;;;;;;;5.57;3.83;;;;;;;;;;5015438;28;20084;-90
2023/05/21 12:41:55;;;;;;;7.28;3.78;;;;;;;;;;5019113;28;20083;-90
2023/05/21 12:44:21;;;;;;;8.63;4.00;;;;;;;;;;5049745;28;20037;-89
2023/05/21 12:46:46;;;;;;;4.03;3.50;;;;;;;;;;5019754;28;20452;-90
2023/05/21 12:49:32;;;;;;;5.47;3.75;;;;;;;;;;5023836;28;20041;-90
2023/05/21 12:51:58;;;;;;;4.43;3.67;;;;;;;;;;5036603;28;20033;-89
2023/05/21 12:54:31;;;;;;;6.35;3.97;;;;;;;;;;5040525;28;20505;-90
2023/05/21 12:56:57;;;;;;;4.80;3.58;;;;;;;;;;5021932;28;20045;-91
2023/05/21 12:59:22;;;;;;;6.90;3.35;;;;;;;;;;5037563;28;20037;-90
2023/05/21 13:01:48;;;;;;;5.95;3.60;;;;;;;;;;5044821;28;20041;-93
2023/05/21 13:04:14;;;;;;;5.07;3.58;;;;;;;;;;5038143;28;20457;-89
2023/05/21 13:06:42;;;;;;;4.68;3.47;;;;;;;;;;5042480;28;20095;-91
2023/05/21 13:09:08;;;;;;;4.88;3.55;;;;;;;;;;5037238;28;20120;-90
2023/05/21 13:11:33;;;;;;;5.60;3.70;;;;;;;;;;5034275;28;20116;-90
2023/05/21 13:13:59;;;;;;;6.53;3.60;;;;;;;;;;5044621;28;20056;-90
2023/05/21 13:16:25;;;;;;;7.68;3.55;;;;;;;;;;5037077;28;20045;-90
2023/05/21 13:18:50;;;;;;;5.47;3.70;;;;;;;;;;5039230;28;20711;-91
2023/05/21 13:21:16;;;;;;;4.28;3.70;;;;;;;;;;5042406;28;20033;-94
2023/05/21 13:23:41;;;;;;;5.55;3.50;;;;;;;;;;5050283;28;20036;-90
2023/05/21 13:26:07;;;;;;;6.75;3.70;;;;;;;;;;5024209;28;20029;-89
2023/05/21 13:28:32;;;;;;;4.50;3.50;;;;;;;;;;5022597;28;20656;-90
2023/05/21 13:30:57;;;;;;;5.05;3.60;;;;;;;;;;5036459;28;20403;-89
2023/05/21 13:33:23;;;;;;;5.18;3.58;;;;;;;;;;5036054;28;20029;-89
2023/05/21 13:35:50;;;;;;;4.88;3.38;;;;;;;;;;5039727;28;20041;-90
2023/05/21 13:38:16;;;;;;;5.25;3.60;;;;;;;;;;5039531;28;20039;-90
2023/05/21 13:40:41;;;;;;;5.43;3.75;;;;;;;;;;5035878;28;20034;-91
2023/05/21 13:43:07;;;;;;;3.88;3.28;;;;;;;;;;5035403;28;20141;-90
2023/05/21 13:45:32;;;;;;;5.85;3.58;;;;;;;;;;5022506;28;20065;-92
2023/05/21 13:47:58;;;;;;;6.97;3.70;;;;;;;;;;5035250;28;20095;-89
2023/05/21 13:50:23;;;;;;;6.18;3.53;;;;;;;;;;5041166;28;20025;-88
2023/05/21 13:52:49;;;;;;;5.00;3.65;;;;;;;;;;5045516;28;20055;-90
2023/05/21 13:55:15;;;;;;;5.50;3.80;;;;;;;;;;5048702;28;20041;-90
2023/05/21 13:57:40;;;;;;;5.05;3.58;;;;;;;;;;5043254;28;20033;-88
2023/05/21 14:00:08;;;;;;;4.70;3.40;;;;;;;;;;5043417;28;20044;-88
2023/05/21 14:02:33;;;;;;;5.95;3.80;;;;;;;;;;5055497;28;20502;-89
2023/05/21 14:04:59;;;;;;;6.40;4.05;;;;;;;;;;5012358;28;20071;-89
2023/05/21 14:07:25;;;;;;;6.43;4.43;;;;;;;;;;5030661;28;20045;-89
2023/05/21 14:09:51;;;;;;;7.50;4.00;;;;;;;;;;5030443;28;20048;-88
2023/05/21 14:12:17;;;;;;;8.18;3.92;;;;;;;;;;5019797;28;20030;-89
2023/05/21 14:14:43;;;;;;;5.65;4.05;;;;;;;;;;5013909;28;20029;-88
2023/05/21 14:17:09;;;;;;;5.13;3.92;;;;;;;;;;5039502;28;20091;-88
2023/05/21 14:19:34;;;;;;;4.80;3.60;;;;;;;;;;5025599;28;20065;-88
2023/05/21 14:22:00;;;;;;;9.18;3.80;;;;;;;;;;5016096;28;20030;-88
2023/05/21 14:24:25;;;;;;;6.05;3.70;;;;;;;;;;5026928;28;20434;-88
2023/05/21 14:26:51;;;;;;;6.75;3.95;;;;;;;;;;5035565;28;20037;-88
2023/05/21 14:29:16;;;;;;;8.10;4.00;;;;;;;;;;5037584;28;20448;-89
2023/05/21 14:31:42;;;;;;;4.00;3.38;;;;;;;;;;5034048;28;20045;-90
2023/05/21 14:34:07;;;;;;;6.28;3.70;;;;;;;;;;5040755;28;20033;-89
2023/05/21 14:36:33;;;;;;;6.93;3.80;;;;;;;;;;5034352;28;20037;-90
2023/05/21 14:38:59;;;;;;;5.20;3.67;;;;;;;;;;5038574;28;20045;-89
2023/05/21 14:41:26;;;;;;;8.65;3.70;;;;;;;;;;5042643;28;20042;-89
2023/05/21 14:43:52;;;;;;;4.65;3.58;;;;;;;;;;5038936;28;20032;-89